createdAt,value
2019-06-26T00:02:41.326Z,15.97
2019-06-26T00:07:46.450Z,20.13
2019-06-26T00:12:51.464Z,20.47
2019-06-26T00:17:56.325Z,15.77
2019-06-26T00:23:01.346Z,15.13
2019-06-26T00:28:06.202Z,17.07
2019-06-26T00:33:11.041Z,15.40
2019-06-26T00:38:15.907Z,13.77
2019-06-26T00:43:20.766Z,15.10
2019-06-26T00:48:25.585Z,14.77
2019-06-26T00:53:30.426Z,14.30
2019-06-26T00:58:35.292Z,18.53
2019-06-26T01:03:40.318Z,17.03
2019-06-26T01:08:45.351Z,15.20
2019-06-26T01:13:58.171Z,15.63
2019-06-26T01:18:58.290Z,15.93
2019-06-26T01:24:03.935Z,19.97
2019-06-26T01:29:09.139Z,17.50
2019-06-26T01:34:14.009Z,17.80
2019-06-26T01:39:19.255Z,19.57
2019-06-26T01:44:24.060Z,17.07
2019-06-26T01:49:29.305Z,14.57
2019-06-26T01:54:34.455Z,15.10
2019-06-26T01:59:39.276Z,15.87
2019-06-26T02:04:43.990Z,15.60
2019-06-26T02:09:49.112Z,13.50
2019-06-26T02:14:55.440Z,14.77
2019-06-26T02:20:00.349Z,13.77
2019-06-26T02:25:06.095Z,14.90
2019-06-26T02:30:10.985Z,18.43
2019-06-26T02:35:15.821Z,13.97
2019-06-26T02:40:21.679Z,17.37
2019-06-26T02:45:26.521Z,19.23
2019-06-26T02:50:31.359Z,14.87
2019-06-26T02:55:36.243Z,15.27
2019-06-26T03:00:41.124Z,16.03
2019-06-26T03:05:45.983Z,19.50
2019-06-26T03:10:50.949Z,18.53
2019-06-26T03:15:55.895Z,17.13
2019-06-26T03:21:00.693Z,16.63
2019-06-26T03:26:05.523Z,16.20
2019-06-26T03:31:10.402Z,19.77
2019-06-26T03:36:15.307Z,19.07
2019-06-26T03:41:20.194Z,20.13
2019-06-26T03:46:25.022Z,18.67
2019-06-26T03:51:29.900Z,19.37
2019-06-26T03:56:34.751Z,23.97
2019-06-26T04:01:39.734Z,23.67
2019-06-26T04:06:44.656Z,27.87
2019-06-26T04:11:49.601Z,28.77
2019-06-26T04:16:54.910Z,26.07
2019-06-26T04:21:59.886Z,23.47
2019-06-26T04:27:04.946Z,24.43
2019-06-26T04:32:09.908Z,22.67
2019-06-26T04:37:14.948Z,20.87
2019-06-26T04:42:19.895Z,21.50
2019-06-26T04:47:25.155Z,16.47
2019-06-26T04:52:30.200Z,18.03
2019-06-26T04:57:35.495Z,16.23
2019-06-26T05:02:40.428Z,16.27
2019-06-26T05:07:45.645Z,19.03
2019-06-26T05:12:50.680Z,16.03
2019-06-26T05:17:55.785Z,21.43
2019-06-26T05:23:00.702Z,15.67
2019-06-26T05:28:08.272Z,18.10
2019-06-26T05:33:12.340Z,15.73
2019-06-26T05:38:17.380Z,21.00
2019-06-26T05:43:22.327Z,19.20
2019-06-26T05:48:27.200Z,14.37
2019-06-26T05:53:32.346Z,18.27
2019-06-26T05:58:37.289Z,16.83
2019-06-26T06:03:42.242Z,18.20
2019-06-26T06:08:47.249Z,17.47
2019-06-26T06:13:52.325Z,18.87
2019-06-26T06:19:03.499Z,16.53
2019-06-26T06:24:10.735Z,17.27
2019-06-26T06:29:21.315Z,18.17
2019-06-26T06:34:26.397Z,18.17
2019-06-26T06:39:31.543Z,15.70
2019-06-26T06:44:36.591Z,21.20
2019-06-26T06:49:41.605Z,15.33
2019-06-26T06:54:46.732Z,21.83
2019-06-26T06:59:51.822Z,24.83
2019-06-26T07:04:57.118Z,22.03
2019-06-26T07:10:02.172Z,19.07
2019-06-26T07:15:08.850Z,24.37
2019-06-26T07:20:14.813Z,20.93
2019-06-26T07:25:19.867Z,20.93
2019-06-26T07:30:24.926Z,26.10
2019-06-26T07:35:29.941Z,24.60
2019-06-26T07:40:34.811Z,16.17
2019-06-26T07:45:40.008Z,14.80
2019-06-26T07:50:45.188Z,17.53
2019-06-26T07:55:50.200Z,19.57
2019-06-26T08:00:55.179Z,29.10
2019-06-26T08:06:01.842Z,19.07
2019-06-26T08:11:07.012Z,22.40
2019-06-26T08:16:12.057Z,15.57
2019-06-26T08:21:17.611Z,29.90
2019-06-26T08:26:22.752Z,15.53
2019-06-26T08:31:27.917Z,16.13
2019-06-26T08:36:32.983Z,24.23
2019-06-26T08:41:38.080Z,23.00
2019-06-26T08:46:43.096Z,16.63
2019-06-26T08:51:48.161Z,11.27
2019-06-26T08:56:53.072Z,19.50
2019-06-26T09:01:58.288Z,21.50
2019-06-26T09:07:03.174Z,14.07
2019-06-26T09:12:08.284Z,20.53
2019-06-26T09:17:13.575Z,13.23
2019-06-26T09:22:20.246Z,21.00
2019-06-26T09:27:25.408Z,17.03
2019-06-26T09:32:30.506Z,22.60
2019-06-26T09:37:35.638Z,27.70
2019-06-26T09:42:40.562Z,20.90
2019-06-26T09:47:45.823Z,12.87
2019-06-26T09:52:51.000Z,9.10
2019-06-26T09:57:56.146Z,17.73
2019-06-26T10:03:01.053Z,9.20
2019-06-26T10:08:05.966Z,14.13
2019-06-26T10:13:10.919Z,9.47
2019-06-26T10:18:16.103Z,7.70
2019-06-26T10:23:21.374Z,8.63
2019-06-26T10:28:26.398Z,11.20
2019-06-26T10:33:31.428Z,13.80
2019-06-26T10:38:36.499Z,10.87
2019-06-26T10:43:41.437Z,11.10
2019-06-26T10:48:46.647Z,13.70
2019-06-26T10:53:51.896Z,18.77
2019-06-26T10:58:56.831Z,16.17
2019-06-26T11:04:02.049Z,21.13
2019-06-26T11:09:08.698Z,17.43
2019-06-26T11:14:13.989Z,13.63
2019-06-26T11:19:18.915Z,13.67
2019-06-26T11:24:25.437Z,13.53
2019-06-26T11:29:30.672Z,11.07
2019-06-26T11:34:35.946Z,10.80
2019-06-26T11:39:40.909Z,11.33
2019-06-26T11:44:46.006Z,8.23
2019-06-26T11:49:59.867Z,8.67
2019-06-26T11:55:03.006Z,7.70
2019-06-26T12:00:08.770Z,7.60
2019-06-26T12:05:14.166Z,10.40
2019-06-26T12:10:19.502Z,7.13
2019-06-26T12:15:24.457Z,7.10
2019-06-26T12:20:29.553Z,9.35
2019-06-26T12:25:34.599Z,7.30
2019-06-26T12:30:40.261Z,7.65
2019-06-26T12:35:45.504Z,7.87
2019-06-26T12:40:50.588Z,6.90
2019-06-26T12:45:55.569Z,6.92
2019-06-26T12:51:00.551Z,8.08
2019-06-26T12:56:05.602Z,7.97
2019-06-26T13:01:10.666Z,7.75
2019-06-26T13:06:15.634Z,9.25
2019-06-26T13:11:20.500Z,12.50
2019-06-26T13:16:25.628Z,7.55
2019-06-26T13:21:30.553Z,6.92
2019-06-26T13:26:35.469Z,10.15
2019-06-26T13:31:40.320Z,7.55
2019-06-26T13:36:45.509Z,8.98
2019-06-26T13:41:53.811Z,7.35
2019-06-26T13:46:58.977Z,7.47
2019-06-26T13:52:03.913Z,6.83
2019-06-26T13:57:08.736Z,8.98
2019-06-26T14:02:13.632Z,7.47
2019-06-26T14:07:19.230Z,10.88
2019-06-26T14:12:24.153Z,14.80
2019-06-26T14:17:29.039Z,8.78
2019-06-26T14:22:33.806Z,10.25
2019-06-26T14:27:39.025Z,11.80
2019-06-26T14:32:44.073Z,12.30
2019-06-26T14:37:49.314Z,11.73
2019-06-26T14:42:54.527Z,8.55
2019-06-26T14:47:59.422Z,12.33
2019-06-26T14:53:04.441Z,9.88
2019-06-26T14:58:09.365Z,11.65
2019-06-26T15:03:14.418Z,15.43
2019-06-26T15:08:19.351Z,13.88
2019-06-26T15:13:24.171Z,15.85
2019-06-26T15:18:29.217Z,20.08
2019-06-26T15:23:34.087Z,16.05
2019-06-26T15:28:38.949Z,14.83
2019-06-26T15:33:44.368Z,13.95
2019-06-26T15:38:54.142Z,14.38
2019-06-26T15:43:59.126Z,13.88
2019-06-26T15:49:04.076Z,14.05
2019-06-26T15:54:11.973Z,11.20
2019-06-26T15:59:21.354Z,10.05
2019-06-26T16:04:27.174Z,11.28
2019-06-26T16:09:37.973Z,10.63
2019-06-26T16:14:43.699Z,9.68
2019-06-26T16:19:51.687Z,8.95
2019-06-26T16:25:00.289Z,9.65
2019-06-26T16:30:07.792Z,11.40
2019-06-26T16:35:15.909Z,9.95
2019-06-26T16:40:21.462Z,8.05
2019-06-26T16:45:26.341Z,11.45
2019-06-26T16:50:31.801Z,12.58
2019-06-26T16:55:42.277Z,13.60
2019-06-26T17:00:47.729Z,11.63
2019-06-26T17:05:52.604Z,11.57
2019-06-26T17:10:57.817Z,15.30
2019-06-26T17:16:02.949Z,10.10
2019-06-26T17:21:08.076Z,32.00
2019-06-26T17:26:13.098Z,12.58
2019-06-26T17:31:18.143Z,12.70
2019-06-26T17:36:23.512Z,36.00
2019-06-26T17:41:28.576Z,12.53
2019-06-26T17:46:33.560Z,13.08
2019-06-26T17:51:38.607Z,13.60
2019-06-26T17:56:43.625Z,16.00
2019-06-26T18:01:48.843Z,15.10
2019-06-26T18:06:54.118Z,10.37
2019-06-26T18:11:59.371Z,16.53
2019-06-26T18:17:17.945Z,22.13
2019-06-26T18:22:11.220Z,14.03
2019-06-26T18:27:16.436Z,36.40
2019-06-26T18:32:21.504Z,16.30
2019-06-26T18:37:26.363Z,24.10
2019-06-26T18:42:31.490Z,19.17
2019-06-26T18:47:38.230Z,18.93
2019-06-26T18:52:43.084Z,18.13
2019-06-26T18:57:47.981Z,18.37
2019-06-26T19:02:53.312Z,14.60
2019-06-26T19:07:59.886Z,15.70
2019-06-26T19:13:04.953Z,11.97
2019-06-26T19:18:10.134Z,17.87
2019-06-26T19:23:15.230Z,19.83
2019-06-26T19:28:23.118Z,15.17
2019-06-26T19:33:26.867Z,16.83
2019-06-26T19:38:31.878Z,19.30
2019-06-26T19:43:36.741Z,11.13
2019-06-26T19:48:41.592Z,13.87
2019-06-26T19:53:46.423Z,9.93
2019-06-26T19:58:51.285Z,10.80
2019-06-26T20:03:56.263Z,11.87
2019-06-26T20:09:01.146Z,11.20
2019-06-26T20:14:07.179Z,8.20
2019-06-26T20:19:11.976Z,10.07
2019-06-26T20:24:16.875Z,15.97
2019-06-26T20:29:21.632Z,12.10
2019-06-26T20:34:26.511Z,10.17
2019-06-26T20:39:31.345Z,12.17
2019-06-26T20:44:49.552Z,13.60
2019-06-26T20:50:06.187Z,11.97
2019-06-26T20:55:15.726Z,11.10
2019-06-26T21:00:33.443Z,9.00
2019-06-26T21:05:57.802Z,6.93
2019-06-26T21:11:16.308Z,10.70
2019-06-26T21:16:23.828Z,6.13
2019-06-26T21:21:35.053Z,6.90
2019-06-26T21:26:39.757Z,10.17
2019-06-26T21:31:45.581Z,8.70
2019-06-26T21:36:51.876Z,5.70
2019-06-26T21:41:57.289Z,7.73
2019-06-26T21:47:02.178Z,6.37
2019-06-26T21:52:06.913Z,6.63
2019-06-26T21:57:11.706Z,9.87
2019-06-26T22:02:18.598Z,7.50
2019-06-26T22:07:25.456Z,5.70
2019-06-26T22:12:31.942Z,9.30
2019-06-26T22:17:36.951Z,5.67
2019-06-26T22:22:42.101Z,7.33
2019-06-26T22:27:47.000Z,5.73
2019-06-26T22:32:51.867Z,5.37
2019-06-26T22:37:56.867Z,4.70
2019-06-26T22:43:01.638Z,9.67
2019-06-26T22:48:06.524Z,4.60
2019-06-26T22:53:11.550Z,4.43
2019-06-26T22:58:16.418Z,6.00
2019-06-26T23:03:21.346Z,5.10
2019-06-26T23:08:26.284Z,4.80
2019-06-26T23:13:31.066Z,4.53
2019-06-26T23:18:35.915Z,4.70
2019-06-26T23:23:40.768Z,4.63
2019-06-26T23:28:45.533Z,6.70
2019-06-26T23:33:50.420Z,8.10
2019-06-26T23:38:55.098Z,5.93
2019-06-26T23:43:59.914Z,8.30
2019-06-26T23:49:05.202Z,7.13
2019-06-26T23:54:09.935Z,4.67
2019-06-26T23:59:15.101Z,12.20
